Time;durP1;ratioP1;P1;durP2;ratioP2;P2;SDS_P1;SDS_P2;PMS_P1;PMS_P2;Temp;Humidity;BMP_temperature;BMP_pressure;BME280_temperature;BME280_humidity;BME280_pressure;Samples;Min_cycle;Max_cycle;Signal;HPM_P1;HPM_P2
2021/04/30 00:00:40;;;;;;;0.68;0.65;;;;;;;-148.56;100.00;61375.16;4979879;28;20040;-27
2021/04/30 00:04:04;;;;;;;2.72;0.63;;;;;;;-148.56;100.00;61375.16;4970324;28;20065;-30
2021/04/30 00:07:28;;;;;;;1.25;0.75;;;;;;;-148.56;100.00;61375.16;4977825;28;20113;-29
2021/04/30 00:10:52;;;;;;;0.70;0.50;;;;;;;-148.56;100.00;61375.16;4980457;28;20523;-29
2021/04/30 00:14:16;;;;;;;1.77;0.77;;;;;;;-148.56;100.00;61375.16;4975089;28;20114;-31
2021/04/30 00:17:40;;;;;;;0.77;0.50;;;;;;;-148.56;100.00;61375.16;4974675;28;20096;-29
2021/04/30 00:21:05;;;;;;;0.55;0.50;;;;;;;-148.56;100.00;61375.16;4980952;28;20084;-28
2021/04/30 00:24:29;;;;;;;1.50;0.88;;;;;;;-148.56;100.00;61375.16;4992171;28;20035;-28
2021/04/30 00:27:53;;;;;;;2.13;0.88;;;;;;;-148.56;100.00;61375.16;4999143;28;20544;-27
2021/04/30 00:31:18;;;;;;;1.38;0.70;;;;;;;-148.56;100.00;61375.16;4983431;28;20125;-28
2021/04/30 00:34:42;;;;;;;0.88;0.70;;;;;;;-148.56;100.00;61375.16;4982271;28;20113;-29
2021/04/30 00:38:06;;;;;;;1.10;0.60;;;;;;;-148.56;100.00;61375.16;4982147;28;20049;-30
2021/04/30 00:41:30;;;;;;;1.05;0.73;;;;;;;-148.56;100.00;61375.16;4981621;28;20488;-28
2021/04/30 00:44:54;;;;;;;2.35;0.50;;;;;;;-148.56;100.00;61375.16;4977655;28;20772;-28
2021/04/30 00:47:33;;;;;;;0.95;0.70;;;;;;;27.67;26.76;95908.31;4980266;28;20046;-29
2021/04/30 00:51:01;;;;;;;0.98;0.60;;;;;;;-148.56;100.00;61375.16;4989645;28;20026;-31
2021/04/30 00:54:25;;;;;;;1.13;0.55;;;;;;;-148.56;100.00;61375.16;4977672;28;20041;-29
2021/04/30 00:57:56;;;;;;;2.22;0.70;;;;;;;-148.56;100.00;61375.16;4986294;28;20737;-30
2021/04/30 01:00:54;;;;;;;1.15;0.73;;;;;;;27.67;26.76;95908.31;4979298;28;20026;-31
2021/04/30 01:04:17;;;;;;;0.80;0.65;;;;;;;-148.56;100.00;61375.16;4987547;28;20030;-29
2021/04/30 01:07:41;;;;;;;0.80;0.60;;;;;;;-148.56;100.00;61375.16;4980489;28;20069;-28
2021/04/30 01:11:05;;;;;;;1.65;0.70;;;;;;;-148.56;100.00;61375.16;4984074;28;20053;-28
2021/04/30 01:14:29;;;;;;;1.35;0.50;;;;;;;-148.56;100.00;61375.16;4983725;28;20032;-31
2021/04/30 01:17:54;;;;;;;2.58;0.50;;;;;;;-148.56;100.00;61375.16;4979972;28;20038;-29
2021/04/30 01:21:18;;;;;;;0.82;0.60;;;;;;;-148.56;100.00;61375.16;4985802;28;20160;-31
2021/04/30 01:24:42;;;;;;;1.55;0.73;;;;;;;-148.56;100.00;61375.16;4994481;28;20042;-31
2021/04/30 01:28:06;;;;;;;2.05;0.50;;;;;;;-148.56;100.00;61375.16;4983455;28;20057;-31
2021/04/30 01:31:34;;;;;;;0.80;0.55;;;;;;;-148.56;100.00;61375.16;4979043;28;20651;-28
2021/04/30 01:34:58;;;;;;;1.42;0.50;;;;;;;-148.56;100.00;61375.16;4973736;28;20735;-29
2021/04/30 01:38:23;;;;;;;1.70;0.55;;;;;;;-148.56;100.00;61375.16;4981820;28;20049;-28
2021/04/30 01:41:47;;;;;;;1.60;0.57;;;;;;;-148.56;100.00;61375.16;4980901;28;20036;-28
2021/04/30 01:45:11;;;;;;;0.98;0.50;;;;;;;-148.56;100.00;61375.16;4988516;28;20037;-27
2021/04/30 01:48:35;;;;;;;1.20;0.60;;;;;;;-148.56;100.00;61375.16;4979575;28;20030;-29
2021/04/30 01:52:00;;;;;;;0.77;0.43;;;;;;;-148.56;100.00;61375.16;4988772;28;20504;-30
2021/04/30 01:55:27;;;;;;;1.75;0.55;;;;;;;-148.56;100.00;61375.16;4984452;28;20397;-31
2021/04/30 01:58:51;;;;;;;0.50;0.50;;;;;;;-148.56;100.00;61375.16;4977887;28;20132;-29
2021/04/30 02:02:15;;;;;;;0.98;0.50;;;;;;;-148.56;100.00;61375.16;4976033;28;20026;-29
2021/04/30 02:05:39;;;;;;;1.60;0.60;;;;;;;-148.56;100.00;61375.16;4979080;28;20110;-30
2021/04/30 02:09:04;;;;;;;1.10;0.60;;;;;;;-148.56;100.00;61375.16;4976982;28;20652;-26
2021/04/30 02:12:30;;;;;;;1.30;0.60;;;;;;;-148.56;100.00;61375.16;4978905;28;20064;-28
2021/04/30 02:15:54;;;;;;;1.40;0.50;;;;;;;-148.56;100.00;61375.16;4967797;28;20757;-32
2021/04/30 02:19:18;;;;;;;0.65;0.40;;;;;;;-148.56;100.00;61375.16;4979530;28;20044;-30
2021/04/30 02:22:42;;;;;;;0.70;0.43;;;;;;;-148.56;100.00;61375.16;4966528;28;20117;-26
2021/04/30 02:26:06;;;;;;;1.42;0.50;;;;;;;-148.56;100.00;61375.16;4984943;28;20029;-28
2021/04/30 02:29:33;;;;;;;0.77;0.32;;;;;;;-148.56;100.00;61375.16;4984963;28;20807;-26
2021/04/30 02:32:57;;;;;;;0.95;0.60;;;;;;;-148.56;100.00;61375.16;4978554;28;20537;-29
2021/04/30 02:36:22;;;;;;;1.38;0.50;;;;;;;-148.56;100.00;61375.16;4974272;28;20038;-29
2021/04/30 02:39:46;;;;;;;0.35;0.30;;;;;;;-148.56;100.00;61375.16;4985583;28;20022;-30
2021/04/30 02:43:14;;;;;;;1.58;0.80;;;;;;;-148.56;100.00;61375.16;4979062;28;20033;-31
2021/04/30 02:46:38;;;;;;;1.20;0.40;;;;;;;-148.56;100.00;61375.16;4980689;28;20680;-29
2021/04/30 02:50:03;;;;;;;4.20;0.75;;;;;;;-148.56;100.00;61375.16;4975571;28;20404;-33
2021/04/30 02:53:27;;;;;;;0.57;0.40;;;;;;;-148.56;100.00;61375.16;4984289;28;20148;-32
2021/04/30 02:56:51;;;;;;;0.88;0.30;;;;;;;-148.56;100.00;61375.16;4980784;28;20108;-30
2021/04/30 03:00:14;;;;;;;0.38;0.35;;;;;;;-148.56;100.00;61375.16;4981240;28;20108;-32
2021/04/30 03:03:38;;;;;;;0.90;0.40;;;;;;;-148.56;100.00;61375.16;4977572;28;20591;-29
2021/04/30 03:07:02;;;;;;;0.68;0.50;;;;;;;-148.56;100.00;61375.16;4983690;28;20167;-27
2021/04/30 03:10:26;;;;;;;1.23;0.40;;;;;;;-148.56;100.00;61375.16;4982952;28;20527;-29
2021/04/30 03:13:51;;;;;;;2.15;0.60;;;;;;;-148.56;100.00;61375.16;4964408;28;20117;-27
2021/04/30 03:17:15;;;;;;;0.90;0.55;;;;;;;-148.56;100.00;61375.16;4968572;28;20035;-28
2021/04/30 03:20:39;;;;;;;0.50;0.40;;;;;;;-148.56;100.00;61375.16;4977311;28;20492;-27
2021/04/30 03:24:03;;;;;;;1.80;0.70;;;;;;;-148.56;100.00;61375.16;4988398;28;20117;-28
2021/04/30 03:27:27;;;;;;;2.33;0.60;;;;;;;-148.56;100.00;61375.16;4972951;28;20021;-28
2021/04/30 03:30:52;;;;;;;1.13;0.32;;;;;;;-148.56;100.00;61375.16;4976487;28;20054;-28
2021/04/30 03:34:16;;;;;;;2.08;0.70;;;;;;;-148.56;100.00;61375.16;4979081;28;20484;-27
2021/04/30 03:37:40;;;;;;;3.50;0.50;;;;;;;-148.56;100.00;61375.16;4980422;28;20095;-26
2021/04/30 03:41:04;;;;;;;0.85;0.40;;;;;;;-148.56;100.00;61375.16;4978793;28;20041;-27
2021/04/30 03:44:28;;;;;;;0.80;0.32;;;;;;;-148.56;100.00;61375.16;4981430;28;20662;-29
2021/04/30 03:47:51;;;;;;;0.43;0.40;;;;;;;-148.56;100.00;61375.16;4969937;28;20031;-30
2021/04/30 03:51:15;;;;;;;3.08;0.50;;;;;;;-148.56;100.00;61375.16;4980185;28;20252;-30
2021/04/30 03:54:39;;;;;;;0.47;0.40;;;;;;;-148.56;100.00;61375.16;4977255;28;20081;-30
2021/04/30 03:58:03;;;;;;;0.40;0.40;;;;;;;-148.56;100.00;61375.16;4987520;28;20026;-28
2021/04/30 04:01:27;;;;;;;1.23;0.40;;;;;;;-148.56;100.00;61375.16;4970779;28;20907;-29
2021/04/30 04:04:51;;;;;;;0.73;0.60;;;;;;;-148.56;100.00;61375.16;4983114;28;20167;-29
2021/04/30 04:08:15;;;;;;;2.25;0.68;;;;;;;-148.56;100.00;61375.16;4982883;28;20926;-24
2021/04/30 04:11:39;;;;;;;1.50;0.40;;;;;;;-148.56;100.00;61375.16;4981329;28;20080;-28
2021/04/30 04:15:03;;;;;;;1.23;0.40;;;;;;;-148.56;100.00;61375.16;4985193;28;20040;-31
2021/04/30 04:18:27;;;;;;;0.98;0.60;;;;;;;-148.56;100.00;61375.16;4981417;28;20065;-28
2021/04/30 04:21:50;;;;;;;0.60;0.47;;;;;;;-148.56;100.00;61375.16;4984868;28;20026;-29
2021/04/30 04:25:14;;;;;;;1.33;0.47;;;;;;;-148.56;100.00;61375.16;4985195;28;20034;-30
2021/04/30 04:28:38;;;;;;;0.35;0.35;;;;;;;-148.56;100.00;61375.16;4985354;28;20023;-29
2021/04/30 04:32:02;;;;;;;0.40;0.40;;;;;;;-148.56;100.00;61375.16;4977295;28;20030;-29
2021/04/30 04:35:26;;;;;;;1.15;0.52;;;;;;;-148.56;100.00;61375.16;4982935;28;20124;-32
2021/04/30 04:38:50;;;;;;;0.80;0.50;;;;;;;-148.56;100.00;61375.16;4988994;28;20622;-28
2021/04/30 04:42:14;;;;;;;0.38;0.30;;;;;;;-148.56;100.00;61375.16;4979353;28;20030;-29
2021/04/30 04:45:39;;;;;;;0.95;0.40;;;;;;;-148.56;100.00;61375.16;4983061;28;20030;-28
2021/04/30 04:49:03;;;;;;;0.60;0.40;;;;;;;-148.56;100.00;61375.16;4984928;28;20398;-27
2021/04/30 04:52:26;;;;;;;1.05;0.43;;;;;;;-148.56;100.00;61375.16;4987545;28;20042;-30
2021/04/30 04:55:50;;;;;;;1.35;0.45;;;;;;;-148.56;100.00;61375.16;4983757;28;20539;-29
2021/04/30 04:59:14;;;;;;;0.95;0.40;;;;;;;-148.56;100.00;61375.16;4984186;28;21609;-29
2021/04/30 05:02:38;;;;;;;0.38;0.32;;;;;;;-148.56;100.00;61375.16;4980944;28;20096;-29
2021/04/30 05:06:04;;;;;;;1.70;0.40;;;;;;;-148.56;100.00;61375.16;4988636;28;20030;-27
2021/04/30 05:09:30;;;;;;;1.27;0.50;;;;;;;-148.56;100.00;61375.16;4986334;28;20059;-27
2021/04/30 05:12:54;;;;;;;1.08;0.40;;;;;;;-148.56;100.00;61375.16;4974168;28;20034;-29
2021/04/30 05:16:18;;;;;;;1.30;0.50;;;;;;;-148.56;100.00;61375.16;4979870;28;20112;-30
2021/04/30 05:19:42;;;;;;;0.47;0.40;;;;;;;-148.56;100.00;61375.16;4973128;28;20412;-31
2021/04/30 05:23:06;;;;;;;0.30;0.30;;;;;;;-148.56;100.00;61375.16;4985631;28;20077;-28
2021/04/30 05:26:30;;;;;;;0.75;0.50;;;;;;;-148.56;100.00;61375.16;4988627;28;20037;-29
2021/04/30 05:29:54;;;;;;;1.08;0.50;;;;;;;-148.56;100.00;61375.16;4976933;28;20941;-29
2021/04/30 05:33:18;;;;;;;10.05;1.20;;;;;;;-148.56;100.00;61375.16;4978459;28;20048;-32
2021/04/30 05:36:42;;;;;;;2.03;0.73;;;;;;;-148.56;100.00;61375.16;4987383;28;20112;-31
2021/04/30 05:40:06;;;;;;;1.52;0.30;;;;;;;-148.56;100.00;61375.16;4982855;28;20100;-30
2021/04/30 05:43:30;;;;;;;3.70;0.60;;;;;;;-148.56;100.00;61375.16;4982210;28;20021;-26
2021/04/30 05:46:54;;;;;;;1.23;0.40;;;;;;;-148.56;100.00;61375.16;4979399;28;20073;-28
2021/04/30 05:50:18;;;;;;;1.10;0.50;;;;;;;-148.56;100.00;61375.16;4979175;28;20144;-28
2021/04/30 05:53:42;;;;;;;1.02;0.40;;;;;;;-148.56;100.00;61375.16;4987081;28;20030;-30
2021/04/30 05:57:05;;;;;;;1.02;0.60;;;;;;;-148.56;100.00;61375.16;4976599;28;20489;-28
2021/04/30 06:00:29;;;;;;;1.05;0.40;;;;;;;-148.56;100.00;61375.16;4983549;28;20038;-28
2021/04/30 06:03:53;;;;;;;0.77;0.50;;;;;;;-148.56;100.00;61375.16;4970437;28;20042;-27
2021/04/30 06:07:17;;;;;;;0.75;0.40;;;;;;;-148.56;100.00;61375.16;4980244;28;20027;-30
2021/04/30 06:10:41;;;;;;;3.22;0.50;;;;;;;-148.56;100.00;61375.16;4976663;28;20121;-31
2021/04/30 06:14:05;;;;;;;0.98;0.60;;;;;;;-148.56;100.00;61375.16;4979545;28;20030;-28
2021/04/30 06:17:29;;;;;;;0.80;0.40;;;;;;;-148.56;100.00;61375.16;4979032;28;20658;-28
2021/04/30 06:20:52;;;;;;;0.88;0.50;;;;;;;-148.56;100.00;61375.16;4971432;28;20044;-29
2021/04/30 06:24:16;;;;;;;2.95;0.57;;;;;;;-148.56;100.00;61375.16;4983383;28;20030;-30
2021/04/30 06:27:40;;;;;;;4.57;0.80;;;;;;;-148.56;100.00;61375.16;4976528;28;20034;-28
2021/04/30 06:31:04;;;;;;;2.22;0.70;;;;;;;-148.56;100.00;61375.16;4974733;28;20615;-27
2021/04/30 06:34:28;;;;;;;3.50;0.70;;;;;;;-148.56;100.00;61375.16;4975467;28;20033;-27
2021/04/30 06:37:52;;;;;;;1.70;0.73;;;;;;;-148.56;100.00;61375.16;4974719;28;20472;-26
2021/04/30 06:41:16;;;;;;;4.93;0.60;;;;;;;-148.56;100.00;61375.16;4973613;28;20038;-28
2021/04/30 06:44:40;;;;;;;2.90;0.50;;;;;;;-148.56;100.00;61375.16;4969440;28;20038;-31
2021/04/30 06:48:04;;;;;;;3.90;0.57;;;;;;;-148.56;100.00;61375.16;4973633;28;20038;-27
2021/04/30 06:51:28;;;;;;;4.72;0.77;;;;;;;-148.56;100.00;61375.16;4972977;28;20030;-29
2021/04/30 06:54:52;;;;;;;3.10;0.60;;;;;;;-148.56;100.00;61375.16;4975865;28;20033;-30
2021/04/30 06:58:16;;;;;;;5.13;0.73;;;;;;;-148.56;100.00;61375.16;4977196;28;20032;-28
2021/04/30 07:01:40;;;;;;;7.75;0.52;;;;;;;-148.56;100.00;61375.16;4982230;28;20030;-27
2021/04/30 07:05:04;;;;;;;4.30;0.68;;;;;;;-148.56;100.00;61375.16;4983099;28;20472;-28
2021/04/30 07:08:28;;;;;;;4.20;0.60;;;;;;;-148.56;100.00;61375.16;4978791;28;20025;-28
2021/04/30 07:11:52;;;;;;;4.40;0.80;;;;;;;-148.56;100.00;61375.16;4971971;28;20029;-26
2021/04/30 07:15:17;;;;;;;2.38;0.55;;;;;;;-148.56;100.00;61375.16;4980387;28;20085;-29
2021/04/30 07:18:44;;;;;;;2.97;0.57;;;;;;;-148.56;100.00;61375.16;4984418;28;20026;-25
2021/04/30 07:22:10;;;;;;;8.38;0.60;;;;;;;-148.56;100.00;61375.16;4979776;28;20586;-27
2021/04/30 07:25:34;;;;;;;1.70;0.60;;;;;;;-148.56;100.00;61375.16;4983337;28;20049;-28
2021/04/30 07:28:58;;;;;;;3.70;0.70;;;;;;;-148.56;100.00;61375.16;4977002;28;20029;-29
2021/04/30 07:32:22;;;;;;;2.67;0.70;;;;;;;-148.56;100.00;61375.16;4982307;28;20499;-28
2021/04/30 07:35:46;;;;;;;1.25;0.60;;;;;;;-148.56;100.00;61375.16;4983932;28;20037;-27
2021/04/30 07:39:10;;;;;;;2.15;0.80;;;;;;;-148.56;100.00;61375.16;4978285;28;20173;-28
2021/04/30 07:42:34;;;;;;;1.13;0.40;;;;;;;-148.56;100.00;61375.16;4984075;28;20050;-30
2021/04/30 07:46:00;;;;;;;2.17;0.50;;;;;;;-148.56;100.00;61375.16;4984002;28;20041;-30
2021/04/30 07:49:27;;;;;;;0.95;0.47;;;;;;;-148.56;100.00;61375.16;4987284;28;20494;-27
2021/04/30 07:52:51;;;;;;;1.05;0.50;;;;;;;-148.56;100.00;61375.16;4983477;28;20559;-28
2021/04/30 07:56:15;;;;;;;0.95;0.55;;;;;;;-148.56;100.00;61375.16;4980901;28;20049;-27
2021/04/30 07:59:39;;;;;;;1.23;0.50;;;;;;;-148.56;100.00;61375.16;4977277;28;20066;-27
2021/04/30 08:03:03;;;;;;;39.13;1.83;;;;;;;-148.56;100.00;61375.16;4973320;28;20032;-29
2021/04/30 08:06:26;;;;;;;6.28;0.70;;;;;;;-148.56;100.00;61375.16;4973632;28;20034;-27
2021/04/30 08:09:53;;;;;;;8.90;1.10;;;;;;;-148.56;100.00;61375.16;4973347;28;20031;-26
2021/04/30 08:13:17;;;;;;;2.60;0.90;;;;;;;-148.56;100.00;61375.16;4983273;28;20038;-28
2021/04/30 08:16:41;;;;;;;3.20;0.77;;;;;;;-148.56;100.00;61375.16;4986574;28;20058;-28
2021/04/30 08:20:05;;;;;;;7.05;1.13;;;;;;;-148.56;100.00;61375.16;4975205;28;20552;-27
2021/04/30 08:23:29;;;;;;;7.88;5.43;;;;;;;-148.56;100.00;61375.16;4971727;28;20065;-27
2021/04/30 08:26:53;;;;;;;11.63;7.30;;;;;;;-148.56;100.00;61375.16;4975911;28;20416;-27
2021/04/30 08:30:17;;;;;;;11.80;5.05;;;;;;;-148.56;100.00;61375.16;4970568;28;20072;-26
2021/04/30 08:33:41;;;;;;;10.50;4.10;;;;;;;-148.56;100.00;61375.16;4971919;28;20030;-31
2021/04/30 08:37:05;;;;;;;12.23;3.00;;;;;;;-148.56;100.00;61375.16;4972901;28;20030;-29
2021/04/30 08:40:29;;;;;;;6.20;2.58;;;;;;;-148.56;100.00;61375.16;4977972;28;20077;-28
2021/04/30 08:43:53;;;;;;;14.35;2.45;;;;;;;-148.56;100.00;61375.16;4969073;28;20026;-27
2021/04/30 08:47:17;;;;;;;14.20;2.00;;;;;;;-148.56;100.00;61375.16;4970330;28;21814;-26
2021/04/30 08:50:41;;;;;;;7.45;2.10;;;;;;;-148.56;100.00;61375.16;4949702;28;20104;-27
2021/04/30 08:54:05;;;;;;;6.70;1.83;;;;;;;-148.56;100.00;61375.16;4972633;28;20033;-30
2021/04/30 08:57:29;;;;;;;10.90;2.05;;;;;;;-148.56;100.00;61375.16;4970699;28;20573;-28
2021/04/30 09:00:54;;;;;;;5.72;2.33;;;;;;;-148.56;100.00;61375.16;4972612;28;20033;-27
2021/04/30 09:04:18;;;;;;;10.82;3.10;;;;;;;-148.56;100.00;61375.16;4977370;28;20045;-26
2021/04/30 09:07:42;;;;;;;13.50;3.90;;;;;;;-148.56;100.00;61375.16;4971040;28;20048;-31
2021/04/30 09:11:10;;;;;;;16.38;3.85;;;;;;;-148.56;100.00;61375.16;4973690;28;20027;-29
2021/04/30 09:14:35;;;;;;;18.98;4.55;;;;;;;-148.56;100.00;61375.16;4981861;28;20442;-30
2021/04/30 09:18:23;;;;;;;19.23;4.40;;;;;;;-148.56;100.00;61375.16;4986713;28;20033;-29
2021/04/30 09:22:06;;;;;;;20.23;4.07;;;;;;;-148.56;100.00;61375.16;4985580;28;20428;-29
2021/04/30 09:25:30;;;;;;;17.52;4.20;;;;;;;-148.56;100.00;61375.16;4985838;28;20034;-30
2021/04/30 09:29:00;;;;;;;19.02;3.88;;;;;;;-148.56;100.00;61375.16;4987123;28;20607;-31
2021/04/30 09:32:33;;;;;;;10.38;3.20;;;;;;;-148.56;100.00;61375.16;4986960;28;20033;-29
2021/04/30 09:36:00;;;;;;;13.35;3.38;;;;;;;-148.56;100.00;61375.16;4988993;28;20042;-27
2021/04/30 09:39:28;;;;;;;12.65;3.60;;;;;;;-148.56;100.00;61375.16;4985259;28;20535;-29
2021/04/30 09:43:09;;;;;;;8.68;3.20;;;;;;;-148.56;100.00;61375.16;4988955;28;20030;-29
2021/04/30 09:46:34;;;;;;;11.57;3.30;;;;;;;-148.56;100.00;61375.16;4983232;28;20627;-30
2021/04/30 09:50:05;;;;;;;6.93;2.92;;;;;;;-148.56;100.00;61375.16;4989988;28;20404;-29
2021/04/30 09:53:29;;;;;;;10.48;3.55;;;;;;;-148.56;100.00;61375.16;4986752;28;20918;-29
2021/04/30 09:57:07;;;;;;;14.18;3.10;;;;;;;-148.56;100.00;61375.16;4990114;28;20026;-27
2021/04/30 10:00:31;;;;;;;9.10;2.90;;;;;;;-148.56;100.00;61375.16;4981160;28;20035;-29
2021/04/30 10:03:55;;;;;;;6.88;3.10;;;;;;;-148.56;100.00;61375.16;4983265;28;20122;-30
2021/04/30 10:07:25;;;;;;;7.03;2.45;;;;;;;-148.56;100.00;61375.16;4984570;28;20026;-28
2021/04/30 10:10:57;;;;;;;10.00;3.17;;;;;;;-148.56;100.00;61375.16;4983055;28;20113;-27
2021/04/30 10:14:23;;;;;;;6.53;2.83;;;;;;;-148.56;100.00;61375.16;4985939;28;20044;-27
2021/04/30 10:17:47;;;;;;;10.15;2.90;;;;;;;-148.56;100.00;61375.16;4984215;28;20034;-27
2021/04/30 10:21:12;;;;;;;8.57;2.80;;;;;;;-148.56;100.00;61375.16;4984089;28;20065;-27
2021/04/30 10:24:36;;;;;;;5.68;2.60;;;;;;;-148.56;100.00;61375.16;4997709;28;20399;-29
2021/04/30 10:28:00;;;;;;;9.93;2.75;;;;;;;-148.56;100.00;61375.16;4991756;28;20113;-30
2021/04/30 10:31:31;;;;;;;6.18;2.60;;;;;;;-148.56;100.00;61375.16;4984731;28;20022;-29
2021/04/30 10:34:56;;;;;;;4.97;2.42;;;;;;;-148.56;100.00;61375.16;4983764;28;20106;-29
2021/04/30 10:38:23;;;;;;;7.07;2.95;;;;;;;-148.56;100.00;61375.16;4991332;28;20026;-28
2021/04/30 10:41:52;;;;;;;6.70;2.60;;;;;;;-148.56;100.00;61375.16;4986396;28;20496;-31
2021/04/30 10:45:22;;;;;;;6.93;2.53;;;;;;;-148.56;100.00;61375.16;4987312;28;20061;-29
2021/04/30 10:49:08;;;;;;;7.15;2.25;;;;;;;-148.56;100.00;61375.16;4987445;28;20121;-33
2021/04/30 10:52:32;;;;;;;6.97;2.33;;;;;;;-148.56;100.00;61375.16;4986862;28;20029;-31
2021/04/30 10:56:21;;;;;;;8.40;2.70;;;;;;;-148.56;100.00;61375.16;4986792;28;20053;-31
2021/04/30 10:59:45;;;;;;;4.53;2.05;;;;;;;-148.56;100.00;61375.16;4985385;28;20084;-30
2021/04/30 11:03:20;;;;;;;7.25;2.35;;;;;;;-148.56;100.00;61375.16;4997289;28;20025;-25
2021/04/30 11:06:51;;;;;;;5.15;2.22;;;;;;;-148.56;100.00;61375.16;4984255;28;20382;-32
2021/04/30 11:10:27;;;;;;;5.03;2.20;;;;;;;-148.56;100.00;61375.16;4984895;28;20034;-29
2021/04/30 11:14:18;;;;;;;4.07;2.40;;;;;;;-148.56;100.00;61375.16;4986853;28;20120;-28
2021/04/30 11:18:01;;;;;;;7.70;2.50;;;;;;;-148.56;100.00;61375.16;4975860;28;20527;-28
2021/04/30 11:21:46;;;;;;;4.80;2.00;;;;;;;-148.56;100.00;61375.16;4973098;28;20070;-28
2021/04/30 11:25:25;;;;;;;7.45;2.40;;;;;;;-148.56;100.00;61375.16;4976814;28;20033;-31
2021/04/30 11:28:55;;;;;;;6.95;2.38;;;;;;;-148.56;100.00;61375.16;4976747;28;20713;-30
2021/04/30 11:32:25;;;;;;;6.47;2.33;;;;;;;-148.56;100.00;61375.16;4972154;28;20040;-27
2021/04/30 11:35:50;;;;;;;4.25;2.10;;;;;;;-148.56;100.00;61375.16;4983505;28;20061;-28
2021/04/30 11:39:24;;;;;;;5.63;2.75;;;;;;;-148.56;100.00;61375.16;4983940;28;20105;-26
2021/04/30 11:42:48;;;;;;;9.95;2.58;;;;;;;-148.56;100.00;61375.16;4975730;28;20044;-27
2021/04/30 11:46:12;;;;;;;8.05;2.88;;;;;;;-148.56;100.00;61375.16;4979453;28;20599;-32
2021/04/30 11:49:37;;;;;;;11.13;2.55;;;;;;;-148.56;100.00;61375.16;4978471;28;20123;-26
2021/04/30 11:53:01;;;;;;;6.88;2.50;;;;;;;-148.56;100.00;61375.16;4986044;28;20034;-29
2021/04/30 11:56:31;;;;;;;5.13;2.60;;;;;;;-148.56;100.00;61375.16;4971619;28;20030;-28
2021/04/30 11:59:56;;;;;;;4.18;2.45;;;;;;;-148.56;100.00;61375.16;4976946;28;20542;-32
2021/04/30 12:03:22;;;;;;;5.72;2.60;;;;;;;-148.56;100.00;61375.16;4984443;28;20313;-27
2021/04/30 12:06:46;;;;;;;5.57;2.13;;;;;;;-148.56;100.00;61375.16;4982820;28;20021;-31
2021/04/30 12:10:29;;;;;;;4.65;2.13;;;;;;;-148.56;100.00;61375.16;4982946;28;20122;-27
2021/04/30 12:13:53;;;;;;;6.80;2.53;;;;;;;-148.56;100.00;61375.16;4976490;28;20038;-29
2021/04/30 12:17:21;;;;;;;5.50;2.92;;;;;;;-148.56;100.00;61375.16;4984158;28;20034;-27
2021/04/30 12:20:52;;;;;;;7.03;2.50;;;;;;;-148.56;100.00;61375.16;4976132;28;20734;-31
2021/04/30 12:24:18;;;;;;;6.60;2.30;;;;;;;-148.56;100.00;61375.16;4980574;28;20587;-29
2021/04/30 12:27:42;;;;;;;8.55;2.55;;;;;;;-148.56;100.00;61375.16;4972732;28;20034;-28
2021/04/30 12:31:07;;;;;;;35.55;18.52;;;;;;;-148.56;100.00;61375.16;4984425;28;20045;-28
2021/04/30 12:34:35;;;;;;;63.95;32.03;;;;;;;-148.56;100.00;61375.16;4981873;28;20085;-28
2021/04/30 12:37:59;;;;;;;141.45;46.28;;;;;;;-148.56;100.00;61375.16;4973507;28;20030;-30
2021/04/30 12:41:30;;;;;;;170.05;54.55;;;;;;;-148.56;100.00;61375.16;4967437;28;20037;-27
2021/04/30 12:44:56;;;;;;;167.55;59.10;;;;;;;-148.56;100.00;61375.16;4976916;28;20040;-29
2021/04/30 12:48:23;;;;;;;166.75;63.15;;;;;;;-148.56;100.00;61375.16;4987730;28;20030;-28
2021/04/30 12:51:51;;;;;;;194.23;70.03;;;;;;;-148.56;100.00;61375.16;4983170;28;20057;-28
2021/04/30 12:55:25;;;;;;;146.98;62.65;;;;;;;-148.56;100.00;61375.16;4993258;28;20065;-29
2021/04/30 12:59:05;;;;;;;134.18;54.80;;;;;;;-148.56;100.00;61375.16;4977977;28;20030;-27
2021/04/30 13:02:29;;;;;;;124.72;50.58;;;;;;;-148.56;100.00;61375.16;4971869;28;20038;-29
2021/04/30 13:05:53;;;;;;;109.82;46.42;;;;;;;-148.56;100.00;61375.16;4976341;28;20480;-26
2021/04/30 13:09:22;;;;;;;106.18;48.25;;;;;;;-148.56;100.00;61375.16;4963374;28;20141;-29
2021/04/30 13:13:06;;;;;;;121.28;49.30;;;;;;;-148.56;100.00;61375.16;4981336;28;20037;-29
2021/04/30 13:16:40;;;;;;;114.22;47.05;;;;;;;-148.56;100.00;61375.16;4976839;28;20053;-29
2021/04/30 13:20:17;;;;;;;96.20;43.83;;;;;;;-148.56;100.00;61375.16;4977536;28;20104;-27
2021/04/30 13:23:41;;;;;;;100.47;40.50;;;;;;;-148.56;100.00;61375.16;4977462;28;20062;-27
2021/04/30 13:27:18;;;;;;;86.22;37.35;;;;;;;-148.56;100.00;61375.16;4975704;28;20552;-27
2021/04/30 13:30:50;;;;;;;86.75;34.45;;;;;;;-148.56;100.00;61375.16;4972705;28;20029;-30
2021/04/30 13:34:14;;;;;;;72.50;32.72;;;;;;;-148.56;100.00;61375.16;4968988;28;20405;-27
2021/04/30 13:37:54;;;;;;;71.30;32.22;;;;;;;-148.56;100.00;61375.16;4974234;28;20080;-29
2021/04/30 13:41:23;;;;;;;59.35;27.50;;;;;;;-148.56;100.00;61375.16;4977085;28;20127;-29
2021/04/30 13:44:56;;;;;;;58.67;26.08;;;;;;;-148.56;100.00;61375.16;4977908;28;20032;-28
2021/04/30 13:48:24;;;;;;;54.30;26.02;;;;;;;-148.56;100.00;61375.16;4978809;28;20026;-30
2021/04/30 13:51:51;;;;;;;41.83;22.73;;;;;;;-148.56;100.00;61375.16;4972810;28;20057;-28
2021/04/30 13:55:15;;;;;;;44.60;21.25;;;;;;;-148.56;100.00;61375.16;4974829;28;20082;-28
2021/04/30 13:58:51;;;;;;;41.60;20.02;;;;;;;-148.56;100.00;61375.16;4975741;28;20062;-29
2021/04/30 14:02:15;;;;;;;41.88;17.88;;;;;;;-148.56;100.00;61375.16;4973498;28;20038;-30
2021/04/30 14:05:39;;;;;;;43.55;17.98;;;;;;;-148.56;100.00;61375.16;4974446;28;20037;-28
2021/04/30 14:09:03;;;;;;;37.78;17.55;;;;;;;-148.56;100.00;61375.16;4987768;28;20042;-30
2021/04/30 14:12:27;;;;;;;42.90;17.05;;;;;;;-148.56;100.00;61375.16;4981742;28;20104;-29
2021/04/30 14:15:51;;;;;;;36.15;16.70;;;;;;;-148.56;100.00;61375.16;4991196;28;20060;-29
2021/04/30 14:19:15;;;;;;;34.40;14.63;;;;;;;-148.56;100.00;61375.16;4985249;28;20046;-31
2021/04/30 14:22:39;;;;;;;32.78;14.45;;;;;;;-148.56;100.00;61375.16;4985461;28;20037;-32
2021/04/30 14:26:03;;;;;;;28.35;13.77;;;;;;;-148.56;100.00;61375.16;4981548;28;20116;-29
2021/04/30 14:29:27;;;;;;;28.17;13.05;;;;;;;-148.56;100.00;61375.16;4980686;28;20026;-30
2021/04/30 14:32:53;;;;;;;27.67;12.30;;;;;;;-148.56;100.00;61375.16;4985838;28;20212;-29
2021/04/30 14:36:17;;;;;;;25.17;11.77;;;;;;;-148.56;100.00;61375.16;4980324;28;20113;-29
2021/04/30 14:39:41;;;;;;;22.08;11.30;;;;;;;-148.56;100.00;61375.16;4968290;28;20068;-29
2021/04/30 14:43:05;;;;;;;41.65;11.40;;;;;;;-148.56;100.00;61375.16;4970130;28;20030;-29
2021/04/30 14:46:28;;;;;;;26.50;11.15;;;;;;;-148.56;100.00;61375.16;4983654;28;20053;-28
2021/04/30 14:49:52;;;;;;;26.02;11.43;;;;;;;-148.56;100.00;61375.16;4981177;28;20062;-31
2021/04/30 14:53:19;;;;;;;26.85;11.23;;;;;;;-148.56;100.00;61375.16;4981016;28;20147;-26
2021/04/30 14:56:46;;;;;;;23.92;10.23;;;;;;;-148.56;100.00;61375.16;4973454;28;20175;-29
2021/04/30 15:00:10;;;;;;;20.67;10.20;;;;;;;-148.56;100.00;61375.16;4989639;28;20703;-28
2021/04/30 15:03:34;;;;;;;36.00;9.95;;;;;;;-148.56;100.00;61375.16;4979437;28;20113;-29
2021/04/30 15:06:58;;;;;;;24.27;9.48;;;;;;;-148.56;100.00;61375.16;4973891;28;20417;-30
2021/04/30 15:10:21;;;;;;;25.23;10.07;;;;;;;-148.56;100.00;61375.16;4976926;28;20034;-27
2021/04/30 15:13:45;;;;;;;26.30;10.07;;;;;;;-148.56;100.00;61375.16;4974459;28;20054;-29
2021/04/30 15:17:09;;;;;;;28.23;9.05;;;;;;;-148.56;100.00;61375.16;4969561;28;20109;-27
2021/04/30 15:20:33;;;;;;;29.23;9.48;;;;;;;-148.56;100.00;61375.16;4974766;28;20049;-29
2021/04/30 15:23:57;;;;;;;23.23;8.70;;;;;;;-148.56;100.00;61375.16;4973132;28;20030;-28
2021/04/30 15:27:21;;;;;;;24.40;8.68;;;;;;;-148.56;100.00;61375.16;4978692;28;20115;-27